CST,Max TemperatureF,Mean TemperatureF,Min TemperatureF,Max Dew PointF,MeanDew PointF,Min DewpointF,Max Humidity, Mean Humidity, Min Humidity, Max Sea Level PressureIn, Mean Sea Level PressureIn, Min Sea Level PressureIn, Max VisibilityMiles, Mean VisibilityMiles, Min VisibilityMiles, Max Wind SpeedMPH, Mean Wind SpeedMPH, Max Gust SpeedMPH,PrecipitationIn, CloudCover, Events, WindDirDegrees
2012-12-1,33,32,30,30,29,27,93,88,81,30.06,29.83,29.71,10,4,0,8,4,,0.02,7,Fog-Rain,163
2012-12-2,35,34,32,32,30,30,93,87,81,29.94,29.87,29.78,5,2,0,10,1,,0.00,5,Fog,201
2012-12-3,42,36,30,39,34,27,93,87,65,29.81,29.59,29.43,10,5,0,10,2,21,0.01,5,Fog-Rain,235
2012-12-4,33,24,12,23,7,3,79,57,40,30.32,30.02,29.67,10,10,10,15,9,29,0.00,1,,285
2012-12-5,32,18,3,18,11,-2,86,69,51,30.37,30.17,29.84,10,10,10,10,3,,0.00,2,,144
2012-12-6,37,29,21,27,21,12,74,63,48,29.87,29.74,29.64,10,10,10,14,7,20,0.00,3,,257
2012-12-7,26,19,12,16,10,3,74,62,51,30.03,29.97,29.87,10,10,10,8,3,,0.00,1,,313
2012-12-8,26,17,10,19,9,3,80,67,53,30.09,30.04,30.02,10,10,7,5,1,,0.00,5,Snow,11
2012-12-9,28,22,15,25,21,9,93,83,69,30.09,30.02,29.89,10,4,0,10,3,17,0.07,5,Snow,43
2012-12-10,23,16,6,14,9,1,86,77,68,29.88,29.82,29.76,10,5,0,9,4,16,0.08,6,Snow,345
2012-12-11,15,9,3,7,3,-2,92,72,58,29.93,29.76,29.69,10,8,1,8,2,,0.00,6,Snow,270
2012-12-12,24,10,-4,21,10,-9,86,78,67,30.00,29.91,29.84,10,10,4,12,2,17,0.00,4,Snow,94
2012-12-13,26,14,1,21,11,-6,86,74,59,30.11,29.99,29.86,10,10,1,7,2,,0.00,3,Snow,347
2012-12-14,30,16,1,27,18,-2,93,85,78,30.13,30.07,29.92,10,10,10,10,3,16,0.00,6,,88
2012-12-15,35,32,28,32,29,25,93,87,80,29.92,29.68,29.50,10,5,1,15,8,20,0.28,6,Rain-Snow,80
2012-12-16,33,26,19,30,23,14,93,82,69,29.65,29.57,29.49,10,9,5,7,1,,0.04,3,Rain,332
2012-12-17,30,24,19,16,15,12,86,73,55,29.68,29.66,29.63,10,10,10,9,1,17,0.00,3,,311
2012-12-18,26,22,19,18,16,12,93,80,69,29.76,29.68,29.65,10,10,10,5,0,,0.00,5,Snow,290
2012-12-19,30,24,19,21,20,18,93,80,69,29.95,29.87,29.76,10,8,2,12,1,16,0.00,3,Snow,221
2012-12-20,26,19,10,18,14,3,80,73,67,29.93,29.87,29.80,10,10,10,15,6,24,0.00,4,Snow,353
2012-12-21,24,12,0,7,0,-6,85,65,43,30.14,30.08,29.91,10,10,10,13,5,24,0.00,0,,347
2012-12-22,26,13,0,10,2,-8,85,68,43,30.09,29.97,29.86,10,9,2,13,2,23,0.00,1,Snow,317
2012-12-23,19,12,5,3,1,-2,78,64,46,30.07,30.03,29.97,10,10,10,13,6,21,0.00,0,Snow,333
2012-12-24,12,5,-2,0,-6,-9,72,62,52,30.17,30.04,29.97,10,10,10,10,5,16,0.00,3,,337
2012-12-25,17,6,-5,0,-7,-13,78,65,42,30.39,30.31,30.17,10,10,10,8,2,,0.00,0,,333
2012-12-26,23,6,-11,9,0,-15,85,72,54,30.34,30.27,30.21,10,8,2,5,0,,0.00,3,Snow,285
2012-12-27,19,3,-13,16,11,-17,92,81,74,30.29,30.19,30.13,10,5,1,7,1,,0.03,6,Snow,24
2012-12-28,28,22,15,19,16,12,93,81,59,30.12,30.04,29.95,10,4,1,6,0,,0.08,7,Snow,260
2012-12-29,26,19,12,16,11,5,86,78,59,30.02,29.95,29.91,10,7,1,5,1,,0.01,6,Snow,270
2012-12-30,21,10,0,10,2,-8,92,74,49,30.08,29.95,29.78,10,10,5,9,1,,0.00,2,Snow,227
2012-12-31,17,6,-4,10,-6,-13,79,61,38,30.15,30.03,29.78,10,9,3,12,6,21,0.00,1,Snow,322